หน้าหลัก
METAR-TAF:

METAR-TAF

ท่าอากาศยาน :

Brønnøysund, นอร์เวย์

ละติจูด: 65-28N, ลองจิจูด: 012-13E, ความสูง: 0 ม.

การสังเกตสภาพอากาศปัจจุบัน

รายงานได้ทำขึ้นเมื่อ 27 นาทีที่แล้ว ณ เวลา 00:20 UTC
ลม 3 นอตจากตะวันออกเฉียงเหนือ
อุณหภูมิ 12°C
ความชื้น 100%
ความกดอากาศ 1017 hPa
ทัศนวิสัย 10 กม. หรือมากกว่า

METAR: ENBN 200020Z AUTO 04003KT 9999NDV NCD 12/12 Q1017

เวลา: 02:47 (00:47 UTC)

การพยากรณ์

รายงานได้ทำขึ้นเมื่อ 1 ชั่วโมงและ 47 นาทีที่แล้ว ณ เวลา 23:00 UTC
การพยากรณ์มีผลตั้งแต่วันที่ 20 ณ เวลา 00 UTC จนถึงวันที่ 20 ณ เวลา 09 UTC
ลม 5 นอตจากเหนือ
ทัศนวิสัย 10 กม. หรือมากกว่า
มีเมฆน้อยที่ความสูง 700 ฟุต
มีเมฆเป็นส่วนมากเว้นเป็นระยะที่ความสูง 2000 ฟุต

TAF: ENBN 192300Z 2000/2009 36005KT 9999 FEW007 BKN020

สังเกตการณ์สภาพอากาศและพยากรณ์อากาศของสนามบินมากกว่า 4000 แห่ง (รายงาน METAR และ TAF).

สถานีที่ดูได้จะแสดงไว้ด้วยจุดสีเหลืองและสีแดงบนแผนที่.

เลื่อนเมาส์ไปเหนือจุดเพื่อดูชื่อสถานี.

แล้วคลิกเพื่อดูสังเกตการณ์และการพยากรณ์สภาพอากาศ.

ในการเปลี่ยนแผนที่: คลิกที่ปุ่มสีเขียวที่มีกากบาทสีดำเพื่อซูมเข้า; ที่ปุ่มสีเขียวที่มีขีดเพื่อซูมออก; หรือที่ลูกศรสีเขียวเพื่อไปยังแผนที่ที่อยู่ติดกัน.


METAR-TAF: